createdAt,value
2023-01-23T00:01:34.772Z,14.77
2023-01-23T00:04:01.933Z,15.13
2023-01-23T00:06:35.782Z,14.40
2023-01-23T00:09:02.746Z,14.57
2023-01-23T00:11:37.281Z,14.35
2023-01-23T00:14:04.371Z,13.65
2023-01-23T00:16:40.113Z,17.33
2023-01-23T00:19:14.898Z,15.18
2023-01-23T00:21:50.714Z,16.55
2023-01-23T00:24:29.202Z,17.98
2023-01-23T00:27:03.607Z,19.25
2023-01-23T00:29:34.807Z,21.15
2023-01-23T00:32:02.405Z,20.83
2023-01-23T00:34:36.835Z,21.08
2023-01-23T00:37:05.523Z,18.90
2023-01-23T00:39:39.788Z,18.67
2023-01-23T00:42:07.805Z,17.83
2023-01-23T00:44:35.881Z,15.90
2023-01-23T00:47:10.636Z,17.67
2023-01-23T00:49:43.794Z,16.88
2023-01-23T00:52:17.865Z,16.30
2023-01-23T00:54:44.792Z,15.52
2023-01-23T00:57:17.802Z,14.27
2023-01-23T00:59:44.776Z,13.65
2023-01-23T01:02:12.002Z,12.68
2023-01-23T01:04:46.251Z,14.15
2023-01-23T01:07:13.838Z,13.00
2023-01-23T01:09:46.917Z,15.73
2023-01-23T01:12:13.770Z,18.65
2023-01-23T01:14:47.499Z,19.98
2023-01-23T01:17:16.028Z,21.70
2023-01-23T01:19:44.323Z,22.02
2023-01-23T01:22:17.771Z,22.13
2023-01-23T01:24:50.807Z,20.33
2023-01-23T01:27:24.819Z,20.38
2023-01-23T01:29:51.821Z,16.42
2023-01-23T01:32:24.769Z,16.60
2023-01-23T01:34:58.744Z,16.95
2023-01-23T01:37:25.686Z,15.98
2023-01-23T01:39:58.798Z,16.23
2023-01-23T01:42:25.709Z,16.25
2023-01-23T01:45:06.787Z,16.58
2023-01-23T01:47:40.444Z,15.98
2023-01-23T01:50:13.782Z,15.88
2023-01-23T01:52:46.806Z,16.63
2023-01-23T01:55:13.673Z,16.08
2023-01-23T01:57:49.796Z,15.07
2023-01-23T02:00:18.129Z,16.98
2023-01-23T02:02:56.838Z,16.88
2023-01-23T02:05:42.785Z,17.95
2023-01-23T02:08:33.723Z,16.92
2023-01-23T02:11:06.763Z,18.13
2023-01-23T02:13:36.186Z,16.95
2023-01-23T02:16:12.824Z,19.60
2023-01-23T02:18:49.794Z,18.45
2023-01-23T02:21:20.834Z,17.50
2023-01-23T02:24:06.831Z,16.15
2023-01-23T02:26:48.756Z,13.57
2023-01-23T02:29:21.843Z,13.27
2023-01-23T02:31:48.805Z,13.82
2023-01-23T02:34:15.786Z,14.20
2023-01-23T02:36:51.807Z,14.25
2023-01-23T02:39:19.887Z,13.60
2023-01-23T02:41:55.846Z,13.18
2023-01-23T02:44:29.697Z,12.80
2023-01-23T02:47:07.895Z,13.85
2023-01-23T02:49:34.885Z,13.50
2023-01-23T02:52:07.836Z,13.90
2023-01-23T02:54:34.726Z,13.57
2023-01-23T02:57:01.882Z,13.02
2023-01-23T02:59:35.808Z,14.25
2023-01-23T03:02:02.861Z,13.20
2023-01-23T03:04:35.830Z,12.95
2023-01-23T03:07:02.800Z,14.18
2023-01-23T03:09:36.814Z,14.93
2023-01-23T03:12:03.879Z,15.40
2023-01-23T03:14:30.813Z,13.43
2023-01-23T03:17:03.850Z,14.85
2023-01-23T03:19:30.850Z,13.00
2023-01-23T03:22:03.864Z,13.18
2023-01-23T03:24:30.797Z,14.20
2023-01-23T03:27:03.804Z,13.88
2023-01-23T03:29:30.755Z,12.95
2023-01-23T03:32:03.827Z,12.95
2023-01-23T03:34:30.869Z,13.38
2023-01-23T03:37:04.829Z,14.27
2023-01-23T03:39:37.806Z,12.98
2023-01-23T03:42:04.800Z,13.50
2023-01-23T03:44:37.783Z,13.70
2023-01-23T03:47:04.984Z,13.38
2023-01-23T03:49:38.822Z,13.93
2023-01-23T03:52:05.896Z,14.27
2023-01-23T03:54:45.859Z,13.60
2023-01-23T03:57:12.734Z,12.70
2023-01-23T03:59:45.874Z,13.23
2023-01-23T04:02:19.957Z,12.55
2023-01-23T04:04:53.903Z,12.80
2023-01-23T04:07:20.764Z,12.32
2023-01-23T04:09:53.878Z,13.82
2023-01-23T04:12:20.792Z,13.95
2023-01-23T04:14:53.843Z,13.13
2023-01-23T04:17:20.810Z,14.73
2023-01-23T04:19:53.832Z,16.52
2023-01-23T04:22:20.829Z,15.90
2023-01-23T04:24:47.774Z,19.40
2023-01-23T04:27:20.809Z,16.52
2023-01-23T04:29:47.740Z,15.52
2023-01-23T04:32:20.900Z,14.60
2023-01-23T04:34:48.027Z,12.50
2023-01-23T04:37:21.878Z,12.50
2023-01-23T04:39:54.886Z,12.75
2023-01-23T04:42:21.789Z,11.98
2023-01-23T04:44:55.006Z,11.43
2023-01-23T04:47:21.941Z,9.85
2023-01-23T04:49:48.848Z,9.68
2023-01-23T04:52:21.899Z,9.50
2023-01-23T04:54:48.829Z,9.23
2023-01-23T04:57:21.895Z,8.15
2023-01-23T04:59:48.824Z,7.95
2023-01-23T05:02:15.828Z,7.35
2023-01-23T05:04:48.841Z,7.72
2023-01-23T05:07:15.972Z,7.25
2023-01-23T05:09:49.841Z,8.13
2023-01-23T05:12:16.780Z,7.53
2023-01-23T05:14:49.848Z,7.13
2023-01-23T05:17:16.829Z,7.07
2023-01-23T05:19:49.867Z,7.70
2023-01-23T05:22:16.801Z,8.80
2023-01-23T05:24:50.905Z,8.70
2023-01-23T05:27:24.972Z,8.95
2023-01-23T05:29:51.920Z,8.95
2023-01-23T05:32:24.891Z,8.25
2023-01-23T05:34:57.870Z,8.45
2023-01-23T05:37:24.841Z,7.40
2023-01-23T05:39:57.888Z,7.97
2023-01-23T05:42:30.903Z,8.70
2023-01-23T05:45:03.891Z,8.75
2023-01-23T05:47:30.800Z,7.18
2023-01-23T05:49:57.735Z,8.75
2023-01-23T05:52:30.856Z,7.82
2023-01-23T05:54:57.776Z,8.38
2023-01-23T05:57:30.846Z,9.85
2023-01-23T05:59:57.747Z,9.18
2023-01-23T06:02:30.977Z,9.57
2023-01-23T06:05:04.867Z,9.68
2023-01-23T06:07:31.733Z,9.80
2023-01-23T06:10:04.918Z,9.30
2023-01-23T06:12:31.861Z,9.82
2023-01-23T06:15:04.877Z,9.40
2023-01-23T06:17:31.935Z,12.00
2023-01-23T06:20:04.908Z,18.00
2023-01-23T06:22:31.806Z,13.50
2023-01-23T06:25:04.892Z,10.90
2023-01-23T06:27:38.869Z,9.93
2023-01-23T06:30:12.915Z,43.00
2023-01-23T06:32:46.869Z,32.60
2023-01-23T06:35:20.118Z,15.48
2023-01-23T06:37:47.238Z,10.43
2023-01-23T06:40:21.221Z,9.88
2023-01-23T06:42:48.278Z,9.13
2023-01-23T06:45:15.208Z,8.52
2023-01-23T06:47:48.907Z,7.75
2023-01-23T06:50:17.105Z,7.05
2023-01-23T06:52:50.921Z,7.88
2023-01-23T06:55:24.936Z,7.65
2023-01-23T06:57:51.854Z,12.70
2023-01-23T07:00:25.854Z,15.85
2023-01-23T07:02:52.873Z,29.13
2023-01-23T07:05:26.855Z,33.00
2023-01-23T07:07:59.980Z,28.98
2023-01-23T07:10:26.898Z,25.08
2023-01-23T07:12:59.876Z,20.83
2023-01-23T07:15:26.860Z,15.75
2023-01-23T07:17:53.778Z,16.98
2023-01-23T07:20:26.904Z,16.77
2023-01-23T07:22:55.195Z,17.58
2023-01-23T07:25:28.930Z,16.70
2023-01-23T07:27:56.139Z,19.23
2023-01-23T07:30:30.009Z,20.52
2023-01-23T07:33:03.951Z,20.65
2023-01-23T07:35:30.941Z,22.58
2023-01-23T07:38:04.975Z,21.70
2023-01-23T07:40:31.912Z,17.33
2023-01-23T07:42:58.841Z,16.42
2023-01-23T07:45:31.872Z,16.55
2023-01-23T07:47:58.836Z,14.68
2023-01-23T07:50:25.818Z,18.20
2023-01-23T07:52:58.921Z,39.90
2023-01-23T07:55:25.922Z,52.10
2023-01-23T07:57:58.997Z,35.40
2023-01-23T08:00:28.524Z,28.45
2023-01-23T08:03:02.987Z,28.05
2023-01-23T08:05:29.918Z,18.70
2023-01-23T08:08:13.057Z,14.00
2023-01-23T08:10:41.478Z,14.65
2023-01-23T08:13:14.954Z,14.93
2023-01-23T08:15:41.927Z,15.13
2023-01-23T08:18:18.849Z,17.20
2023-01-23T08:20:52.952Z,20.45
2023-01-23T08:23:25.992Z,22.80
2023-01-23T08:26:00.948Z,23.15
2023-01-23T08:28:27.872Z,16.05
2023-01-23T08:30:54.909Z,20.88
2023-01-23T08:33:28.899Z,16.10
2023-01-23T08:35:57.598Z,10.25
2023-01-23T08:38:31.980Z,11.20
2023-01-23T08:41:08.959Z,10.23
2023-01-23T08:43:35.938Z,8.38
2023-01-23T08:46:09.062Z,7.80
2023-01-23T08:48:36.033Z,7.93
2023-01-23T08:51:14.993Z,8.13
2023-01-23T08:53:41.977Z,10.10
2023-01-23T08:56:20.979Z,9.50
2023-01-23T08:58:53.953Z,9.82
2023-01-23T09:01:23.892Z,9.40
2023-01-23T09:03:50.898Z,10.88
2023-01-23T09:06:25.985Z,14.45
2023-01-23T09:08:58.907Z,13.68
2023-01-23T09:11:32.012Z,14.88
2023-01-23T09:14:04.985Z,15.02
2023-01-23T09:16:32.564Z,14.85
2023-01-23T09:19:06.073Z,17.42
2023-01-23T09:21:33.050Z,16.15
2023-01-23T09:24:07.016Z,16.05
2023-01-23T09:26:33.955Z,11.05
2023-01-23T09:29:00.951Z,15.48
2023-01-23T09:31:34.058Z,14.20
2023-01-23T09:34:01.045Z,11.70
2023-01-23T09:36:42.849Z,15.98
2023-01-23T09:39:10.614Z,14.30
2023-01-23T09:41:45.014Z,14.77
2023-01-23T09:44:22.514Z,12.25
2023-01-23T09:47:04.957Z,11.95
2023-01-23T09:50:03.294Z,10.48
2023-01-23T09:52:40.966Z,9.20
2023-01-23T09:55:49.004Z,8.57
2023-01-23T09:58:30.908Z,9.63
2023-01-23T10:01:03.988Z,9.68
2023-01-23T10:03:32.016Z,9.30
2023-01-23T10:06:37.028Z,9.05
2023-01-23T10:09:18.827Z,9.07
2023-01-23T10:12:03.986Z,10.98
2023-01-23T10:14:59.500Z,10.45
2023-01-23T10:17:52.932Z,16.67
2023-01-23T10:21:04.006Z,15.55
2023-01-23T10:24:05.035Z,15.70
2023-01-23T10:26:50.111Z,15.88
2023-01-23T10:29:35.969Z,15.15
2023-01-23T10:32:09.010Z,13.73
2023-01-23T10:35:24.943Z,13.90
2023-01-23T10:38:19.056Z,13.38
2023-01-23T10:40:48.519Z,13.00
2023-01-23T10:43:27.009Z,12.38
2023-01-23T10:45:59.990Z,13.88
2023-01-23T10:49:00.130Z,13.15
2023-01-23T10:51:27.066Z,11.15
2023-01-23T10:54:33.769Z,11.15
2023-01-23T10:57:21.767Z,11.60
2023-01-23T11:00:28.048Z,11.13
2023-01-23T11:02:55.046Z,9.52
2023-01-23T11:06:22.996Z,12.88
2023-01-23T11:08:58.751Z,10.70
2023-01-23T11:11:37.995Z,15.52
2023-01-23T11:14:06.004Z,16.90
2023-01-23T11:16:40.050Z,15.85
2023-01-23T11:19:16.013Z,22.25
2023-01-23T11:22:04.016Z,17.95
2023-01-23T11:24:40.853Z,15.50
2023-01-23T11:27:36.034Z,14.63
2023-01-23T11:30:14.978Z,15.35
2023-01-23T11:32:56.967Z,14.65
2023-01-23T11:36:08.011Z,16.00
2023-01-23T11:38:51.361Z,18.65
2023-01-23T11:41:24.997Z,18.63
2023-01-23T11:43:51.944Z,18.52
2023-01-23T11:46:31.037Z,17.60
2023-01-23T11:49:44.250Z,14.15
2023-01-23T11:52:27.034Z,12.20
2023-01-23T11:55:40.066Z,11.82
2023-01-23T11:58:27.251Z,12.05
2023-01-23T12:01:37.058Z,21.50
2023-01-23T12:04:06.549Z,18.17
2023-01-23T12:06:58.051Z,16.83
2023-01-23T12:09:33.026Z,15.02
2023-01-23T12:12:35.195Z,14.50
2023-01-23T12:15:40.126Z,20.77
2023-01-23T12:18:29.047Z,30.05
2023-01-23T12:21:27.058Z,27.45
2023-01-23T12:24:03.007Z,25.08
2023-01-23T12:26:29.978Z,21.95
2023-01-23T12:29:25.016Z,15.73
2023-01-23T12:32:32.189Z,16.88
2023-01-23T12:35:24.080Z,11.48
2023-01-23T12:38:28.113Z,13.73
2023-01-23T12:41:15.397Z,16.05
2023-01-23T12:43:59.009Z,20.25
2023-01-23T12:47:17.094Z,17.95
2023-01-23T12:49:52.506Z,21.67
2023-01-23T12:53:00.059Z,15.82
2023-01-23T12:55:43.029Z,12.80
2023-01-23T12:58:22.029Z,12.70
2023-01-23T13:01:47.071Z,14.50
2023-01-23T13:04:36.200Z,12.30
2023-01-23T13:07:24.056Z,11.63
2023-01-23T13:10:15.379Z,11.88
2023-01-23T13:12:49.075Z,11.77
2023-01-23T13:15:22.675Z,11.50
2023-01-23T13:18:04.017Z,14.35
2023-01-23T13:20:34.348Z,11.30
2023-01-23T13:23:32.055Z,18.23
2023-01-23T13:26:17.360Z,14.18
2023-01-23T13:29:04.213Z,19.73
2023-01-23T13:31:46.064Z,10.85
2023-01-23T13:34:22.173Z,9.18
2023-01-23T13:36:50.257Z,11.75
2023-01-23T13:39:24.094Z,10.05
2023-01-23T13:42:20.101Z,11.20
2023-01-23T13:45:34.109Z,13.52
2023-01-23T14:25:18.534Z,13.30
2023-01-23T14:27:54.159Z,10.82
2023-01-23T14:30:25.362Z,9.05
2023-01-23T14:32:59.091Z,9.35
2023-01-23T14:35:38.124Z,10.52
2023-01-23T14:38:06.648Z,9.73
2023-01-23T14:40:49.827Z,9.75
2023-01-23T14:43:22.785Z,10.90
2023-01-23T14:46:03.111Z,11.75
2023-01-23T14:48:39.108Z,11.05
2023-01-23T14:51:18.781Z,12.15
2023-01-23T14:54:10.460Z,10.40
2023-01-23T14:56:39.354Z,10.07
2023-01-23T14:59:23.065Z,10.50
2023-01-23T15:02:05.324Z,10.65
2023-01-23T15:04:44.061Z,10.05
2023-01-23T15:07:14.519Z,8.90
2023-01-23T15:09:48.071Z,11.10
2023-01-23T15:12:18.183Z,10.88
2023-01-23T15:14:52.096Z,11.48
2023-01-23T15:17:20.531Z,17.52
2023-01-23T15:19:59.109Z,20.55
2023-01-23T15:22:29.695Z,16.77
2023-01-23T15:24:56.778Z,15.48
2023-01-23T15:27:37.088Z,12.95
2023-01-23T15:30:28.797Z,11.10
2023-01-23T15:33:03.107Z,10.52
2023-01-23T15:35:35.579Z,10.50
2023-01-23T15:38:09.620Z,10.18
2023-01-23T15:40:36.683Z,9.82
2023-01-23T15:43:18.146Z,9.43
2023-01-23T15:45:45.834Z,9.65
2023-01-23T15:48:19.137Z,10.25
2023-01-23T15:50:46.008Z,10.82
2023-01-23T15:53:13.411Z,10.00
2023-01-23T15:55:47.145Z,10.38
2023-01-23T15:58:21.096Z,9.93
2023-01-23T16:00:47.996Z,10.73
2023-01-23T16:03:21.179Z,10.38
2023-01-23T16:05:48.129Z,10.90
2023-01-23T16:08:19.825Z,12.00
2023-01-23T16:10:53.148Z,11.82
2023-01-23T16:13:20.027Z,11.30
2023-01-23T16:15:53.577Z,12.07
2023-01-23T16:18:27.095Z,11.88
2023-01-23T16:20:53.994Z,14.35
2023-01-23T16:23:22.864Z,14.82
2023-01-23T16:25:56.121Z,15.30
2023-01-23T16:28:24.529Z,13.38
2023-01-23T16:30:58.144Z,15.30
2023-01-23T16:33:25.051Z,12.60
2023-01-23T16:35:58.158Z,13.82
2023-01-23T16:38:27.782Z,11.80
2023-01-23T16:41:01.172Z,12.73
2023-01-23T16:43:28.524Z,11.90
2023-01-23T16:46:02.119Z,13.55
2023-01-23T16:48:29.096Z,16.80
2023-01-23T16:51:30.098Z,13.80
2023-01-23T16:54:00.698Z,14.25
2023-01-23T16:56:46.149Z,15.00
2023-01-23T16:59:24.137Z,16.10
2023-01-23T17:01:51.177Z,14.70
2023-01-23T17:04:27.124Z,19.33
2023-01-23T17:06:54.046Z,18.33
2023-01-23T17:09:27.291Z,15.68
2023-01-23T17:11:54.936Z,16.55
2023-01-23T17:14:35.183Z,17.05
2023-01-23T17:17:08.065Z,20.52
2023-01-23T17:19:46.184Z,28.77
2023-01-23T17:22:23.284Z,31.88
2023-01-23T17:24:57.157Z,31.42
2023-01-23T17:27:24.108Z,37.40
2023-01-23T17:29:51.005Z,37.03
2023-01-23T17:32:38.145Z,30.75
2023-01-23T17:35:08.191Z,32.60
2023-01-23T17:37:42.172Z,29.83
2023-01-23T17:40:21.184Z,26.70
2023-01-23T17:42:54.125Z,24.25
2023-01-23T17:45:24.137Z,21.65
2023-01-23T17:47:59.192Z,22.67
2023-01-23T17:50:26.767Z,22.67
2023-01-23T17:53:00.198Z,21.52
2023-01-23T17:55:27.368Z,16.85
2023-01-23T17:58:01.225Z,13.82
2023-01-23T18:00:35.258Z,15.15
2023-01-23T18:03:09.176Z,14.70
2023-01-23T18:05:36.013Z,14.73
2023-01-23T18:08:09.203Z,12.60
2023-01-23T18:10:36.181Z,13.43
2023-01-23T18:13:40.201Z,13.65
2023-01-23T18:16:27.169Z,13.63
2023-01-23T18:19:11.253Z,11.88
2023-01-23T18:21:38.712Z,14.57
2023-01-23T18:24:13.241Z,16.35
2023-01-23T18:27:18.240Z,17.38
2023-01-23T18:30:37.190Z,18.17
2023-01-23T18:33:28.111Z,17.50
2023-01-23T18:36:14.251Z,16.70
2023-01-23T18:39:17.182Z,16.73
2023-01-23T18:42:05.902Z,14.50
2023-01-23T18:44:39.200Z,14.90
2023-01-23T18:47:11.870Z,15.23
2023-01-23T18:49:45.291Z,15.70
2023-01-23T18:52:50.200Z,15.68
2023-01-23T18:55:45.208Z,15.68
2023-01-23T18:58:39.709Z,15.70
2023-01-23T19:01:41.318Z,14.20
2023-01-23T19:04:14.234Z,15.32
2023-01-23T19:06:48.233Z,15.48
2023-01-23T19:09:20.253Z,15.95
2023-01-23T19:12:03.983Z,16.55
2023-01-23T19:14:41.895Z,15.43
2023-01-23T19:17:49.227Z,15.35
2023-01-23T19:20:40.319Z,16.95
2023-01-23T19:23:28.223Z,15.95
2023-01-23T19:25:55.462Z,15.50
2023-01-23T19:28:22.744Z,14.98
2023-01-23T19:30:56.309Z,19.65
2023-01-23T19:33:23.200Z,23.45
2023-01-23T19:35:56.231Z,20.40
2023-01-23T19:38:23.617Z,18.00
2023-01-23T19:40:57.383Z,17.38
2023-01-23T19:43:24.418Z,20.60
2023-01-23T19:45:58.242Z,17.83
2023-01-23T19:48:25.151Z,17.52
2023-01-23T19:50:58.257Z,16.40
2023-01-23T19:53:25.219Z,11.60
2023-01-23T19:56:05.262Z,12.98
2023-01-23T19:58:38.263Z,11.30
2023-01-23T20:01:12.090Z,10.10
2023-01-23T20:03:45.253Z,10.10
2023-01-23T20:06:12.107Z,8.40
2023-01-23T20:08:45.280Z,9.13
2023-01-23T20:11:12.325Z,10.05
2023-01-23T20:13:46.253Z,9.68
2023-01-23T20:16:18.732Z,11.18
2023-01-23T20:18:54.243Z,14.35
2023-01-23T20:21:30.288Z,12.77
2023-01-23T20:23:57.259Z,11.15
2023-01-23T20:26:30.192Z,9.60
2023-01-23T20:28:57.113Z,11.40
2023-01-23T20:31:30.358Z,11.82
2023-01-23T20:34:04.227Z,10.60
2023-01-23T20:36:37.264Z,11.88
2023-01-23T20:39:04.359Z,12.95
2023-01-23T20:41:38.383Z,12.40
2023-01-23T20:44:05.507Z,12.55
2023-01-23T20:46:39.279Z,13.00
2023-01-23T20:49:06.251Z,12.13
2023-01-23T20:51:39.232Z,11.00
2023-01-23T20:54:06.205Z,11.43
2023-01-23T20:56:39.266Z,9.38
2023-01-23T20:59:06.206Z,10.48
2023-01-23T21:01:36.138Z,10.20
2023-01-23T21:04:09.269Z,9.38
2023-01-23T21:06:36.222Z,10.02
2023-01-23T21:09:03.130Z,9.95
2023-01-23T21:11:36.251Z,9.60
2023-01-23T21:14:03.339Z,9.25
2023-01-23T21:16:37.253Z,9.32
2023-01-23T21:19:04.175Z,9.25
2023-01-23T21:21:38.274Z,8.65
2023-01-23T21:24:05.523Z,8.68
2023-01-23T21:26:39.284Z,7.43
2023-01-23T21:29:13.301Z,7.75
2023-01-23T21:31:40.465Z,7.43
2023-01-23T21:34:17.307Z,7.10
2023-01-23T21:36:44.302Z,6.53
2023-01-23T21:39:20.309Z,6.70
2023-01-23T21:41:47.400Z,7.32
2023-01-23T21:44:21.342Z,7.50
2023-01-23T21:46:55.322Z,6.43
2023-01-23T21:49:22.304Z,5.55
2023-01-23T21:51:56.300Z,4.45
2023-01-23T21:54:23.363Z,5.65
2023-01-23T21:56:50.206Z,8.15
2023-01-23T21:59:23.338Z,7.95
2023-01-23T22:01:50.276Z,7.88
2023-01-23T22:04:26.353Z,8.18
2023-01-23T22:07:03.275Z,8.18
2023-01-23T22:09:37.246Z,8.80
2023-01-23T22:12:04.444Z,8.23
2023-01-23T22:14:38.269Z,7.15
2023-01-23T22:17:05.193Z,7.50
2023-01-23T22:19:32.168Z,8.07
2023-01-23T22:22:05.244Z,6.40
2023-01-23T22:24:38.298Z,6.22
2023-01-23T22:27:05.179Z,6.28
2023-01-23T22:29:38.294Z,6.05
2023-01-23T22:32:05.485Z,6.10
2023-01-23T22:34:39.321Z,6.40
2023-01-23T22:37:06.190Z,5.75
2023-01-23T22:39:39.295Z,5.70
2023-01-23T22:42:06.243Z,5.95
2023-01-23T22:44:39.348Z,5.03
2023-01-23T22:47:13.430Z,5.55
2023-01-23T22:49:40.440Z,4.95
2023-01-23T22:52:14.303Z,5.32
2023-01-23T22:54:41.227Z,5.07
2023-01-23T22:57:14.317Z,4.78
2023-01-23T22:59:41.281Z,4.38
2023-01-23T23:02:14.343Z,4.00
2023-01-23T23:04:41.258Z,4.15
2023-01-23T23:07:08.162Z,4.30
2023-01-23T23:09:41.328Z,3.95
2023-01-23T23:12:08.224Z,4.30
2023-01-23T23:14:37.178Z,4.60
2023-01-23T23:17:10.353Z,5.10
2023-01-23T23:19:37.392Z,5.18
2023-01-23T23:22:10.327Z,4.75
2023-01-23T23:24:37.328Z,5.70
2023-01-23T23:27:10.388Z,5.28
2023-01-23T23:29:37.266Z,5.25
2023-01-23T23:32:10.415Z,5.10
2023-01-23T23:34:37.508Z,5.72
2023-01-23T23:37:04.620Z,5.43
2023-01-23T23:39:38.349Z,5.03
2023-01-23T23:42:05.323Z,4.80
2023-01-23T23:44:39.557Z,4.47
2023-01-23T23:47:07.501Z,4.72
2023-01-23T23:49:42.418Z,4.80
2023-01-23T23:52:09.627Z,4.57
2023-01-23T23:54:43.393Z,4.38
2023-01-23T23:57:17.338Z,3.90
2023-01-23T23:59:45.108Z,3.75
